Mr Connor — WDF2688 — position and weather

sailwx.info

Track history (hours):
 
Tides and Currents Weather Stations Pressure Air Temp Water Temp Dewpoint Dewpoint Depression Visibility Wind Speed Wind Dir Waves Ship Positions

Mr Connor

Owner: Marquette Transportation Company Offshore LLC, Jefferson, LA. More information available from US FCC via Universal Licensing System and Coast Guard Vessel Documentation Center.

Last reported at 2018-May-27 21:00 UTC. Time now 2018-May-27 21:20 UTC.
Position N 32°45' W 079°54'.

Length 20 m; draft 3 m.

Type: Tug. MMSI: 367430750.

Date/timePositionNaut miles runAvg speedWind from/ knotsBaromVisibWave heightAir tempDewpointWater temp
2018-May-27 21:00N 32°45' W 079°54'0 0.0
2018-May-27 20:27N 32°45' W 079°54'0 0.0
2018-May-27 20:00N 32°45' W 079°54'0 0.0
2018-May-27 19:30N 32°45' W 079°54'0 0.0
2018-May-27 19:00N 32°45' W 079°54'0 0.0
2018-May-27 18:29N 32°45' W 079°54'0 0.0
2018-May-27 16:40N 32°45' W 079°54'0 0.5
2018-May-27 16:30N 32°46' W 079°54'0 0.5
2018-May-27 16:00N 32°45' W 079°55'0 0.6
2018-May-27 15:30N 32°46' W 079°54'4 1.1
2018-May-27 11:36N 32°50' W 079°56'1 7.5
2018-May-27 11:30N 32°49' W 079°56'4 7.3
2018-May-27 11:00N 32°45' W 079°54'0 0.1
2018-May-27 10:25N 32°45' W 079°54'0 0.0
2018-May-27 09:58N 32°45' W 079°54'0 0.0
2018-May-27 09:28N 32°45' W 079°54'0 0.0
2018-May-27 09:00N 32°45' W 079°54'0 0.3
2018-May-27 08:20N 32°45' W 079°54'0 0.4
2018-May-27 07:55N 32°45' W 079°54'1 0.9
2018-May-27 07:18N 32°45' W 079°54'1 2.1
2018-May-27 07:00N 32°45' W 079°54'0 0.1
2018-May-27 06:30N 32°45' W 079°54'0 0.0
2018-May-27 06:00N 32°45' W 079°54'0 0.6
2018-May-27 05:29N 32°46' W 079°54'0 0.7
2018-May-27 04:59N 32°46' W 079°54'1 1.2
2018-May-27 04:29N 32°46' W 079°53'0 0.6
2018-May-27 03:40N 32°46' W 079°52'0 0.2
2018-May-27 03:29N 32°46' W 079°53'0 0.9
2018-May-27 02:55N 32°45' W 079°52'0 0.6
2018-May-27 02:29N 32°45' W 079°52'0 0.6
2018-May-27 01:59N 32°45' W 079°52'1 0.0
2018-May-26 02:40N 32°46' W 079°53'2 9.7
2018-May-26 02:28N 32°47' W 079°54'4 7.7
2018-May-26 02:00N 32°50' W 079°57'1 1.2
2018-May-26 01:28N 32°50' W 079°56'2 5.0
2018-May-26 01:00N 32°47' W 079°55'2 4.2
2018-May-26 00:30N 32°46' W 079°54'2 3.7
2018-May-25 23:56N 32°45' W 079°52'  
Track history (hours):
 
Tides and Currents Weather Stations Pressure Air Temp Water Temp Dewpoint Dewpoint Depression Visibility Wind Speed Wind Dir Waves Ship Positions

Mr Connor

Owner: Marquette Transportation Company Offshore LLC, Jefferson, LA. More information available from US FCC via Universal Licensing System and Coast Guard Vessel Documentation Center.

Last reported at 2018-May-27 21:00 UTC. Time now 2018-May-27 21:20 UTC.
Position N 32°45' W 079°54'.

Length 20 m; draft 3 m.

Type: Tug. MMSI: 367430750.

Date/timePositionNaut miles runAvg speedWind from/ knotsBaromVisibWave heightAir tempDewpointWater temp
2018-May-27 21:00N 32°45' W 079°54'0 0.0
2018-May-27 20:27N 32°45' W 079°54'0 0.0
2018-May-27 20:00N 32°45' W 079°54'0 0.0
2018-May-27 19:30N 32°45' W 079°54'0 0.0
2018-May-27 19:00N 32°45' W 079°54'0 0.0
2018-May-27 18:29N 32°45' W 079°54'0 0.0
2018-May-27 16:40N 32°45' W 079°54'0 0.5
2018-May-27 16:30N 32°46' W 079°54'0 0.5
2018-May-27 16:00N 32°45' W 079°55'0 0.6
2018-May-27 15:30N 32°46' W 079°54'4 1.1
2018-May-27 11:36N 32°50' W 079°56'1 7.5
2018-May-27 11:30N 32°49' W 079°56'4 7.3
2018-May-27 11:00N 32°45' W 079°54'0 0.1
2018-May-27 10:25N 32°45' W 079°54'0 0.0
2018-May-27 09:58N 32°45' W 079°54'0 0.0
2018-May-27 09:28N 32°45' W 079°54'0 0.0
2018-May-27 09:00N 32°45' W 079°54'0 0.3
2018-May-27 08:20N 32°45' W 079°54'0 0.4
2018-May-27 07:55N 32°45' W 079°54'1 0.9
2018-May-27 07:18N 32°45' W 079°54'1 2.1
2018-May-27 07:00N 32°45' W 079°54'0 0.1
2018-May-27 06:30N 32°45' W 079°54'0 0.0
2018-May-27 06:00N 32°45' W 079°54'0 0.6
2018-May-27 05:29N 32°46' W 079°54'0 0.7
2018-May-27 04:59N 32°46' W 079°54'1 1.2
2018-May-27 04:29N 32°46' W 079°53'0 0.6
2018-May-27 03:40N 32°46' W 079°52'0 0.2
2018-May-27 03:29N 32°46' W 079°53'0 0.9
2018-May-27 02:55N 32°45' W 079°52'0 0.6
2018-May-27 02:29N 32°45' W 079°52'0 0.6
2018-May-27 01:59N 32°45' W 079°52'1 0.0
2018-May-26 02:40N 32°46' W 079°53'2 9.7
2018-May-26 02:28N 32°47' W 079°54'4 7.7
2018-May-26 02:00N 32°50' W 079°57'1 1.2
2018-May-26 01:28N 32°50' W 079°56'2 5.0
2018-May-26 01:00N 32°47' W 079°55'2 4.2
2018-May-26 00:30N 32°46' W 079°54'2 3.7
2018-May-25 23:56N 32°45' W 079°52'  

Dump ship's entire track history